createdAt,value
2022-07-27T03:38:52.661Z,16.40
2022-07-27T03:44:03.542Z,16.40
2022-07-27T03:49:26.902Z,16.60
2022-07-27T03:55:15.429Z,17.00
2022-07-27T04:00:25.624Z,16.70
2022-07-27T04:05:29.897Z,16.50
2022-07-27T04:10:34.629Z,16.40
2022-07-27T04:15:37.829Z,16.50
2022-07-27T04:20:40.925Z,16.60
2022-07-27T04:25:45.298Z,16.60
2022-07-27T04:36:13.820Z,17.00
2022-07-27T04:41:18.354Z,17.10
2022-07-27T04:46:21.426Z,16.90
2022-07-27T04:51:31.198Z,16.80
2022-07-27T04:56:38.630Z,16.70
2022-07-27T05:01:41.839Z,16.70
2022-07-27T05:06:44.947Z,16.40
2022-07-27T05:11:51.879Z,16.60
2022-07-27T05:16:55.239Z,16.60
2022-07-27T05:21:58.334Z,16.60
2022-07-27T05:27:02.808Z,16.60
2022-07-27T05:32:06.660Z,16.70
2022-07-27T05:37:10.034Z,16.50
2022-07-27T05:42:14.702Z,16.60
2022-07-27T05:47:17.783Z,16.80
2022-07-27T05:52:21.479Z,16.90
2022-07-27T05:57:25.885Z,16.90
2022-07-27T06:02:31.567Z,17.20
2022-07-27T06:07:52.560Z,16.90
2022-07-27T06:12:57.249Z,16.80
2022-07-27T06:18:00.378Z,16.70
2022-07-27T06:23:07.755Z,16.80
2022-07-27T06:28:12.619Z,16.80
2022-07-27T06:33:16.356Z,17.30
2022-07-27T06:38:20.576Z,17.40
2022-07-27T06:43:26.887Z,17.50
2022-07-27T06:48:30.174Z,17.30
2022-07-27T06:53:36.554Z,17.50
2022-07-27T06:58:42.102Z,17.50
2022-07-27T07:03:45.367Z,17.70
2022-07-27T07:08:48.558Z,17.90
2022-07-27T07:13:53.221Z,18.00
2022-07-27T07:18:56.411Z,18.20
2022-07-27T07:23:59.668Z,18.40
2022-07-27T07:29:04.433Z,18.80
2022-07-27T07:34:07.717Z,19.20
2022-07-27T07:39:11.056Z,19.50
2022-07-27T07:44:15.701Z,19.80
2022-07-27T07:49:19.328Z,19.50
2022-07-27T07:54:41.249Z,19.90
2022-07-27T07:59:46.209Z,20.30
2022-07-27T08:04:49.283Z,20.70
2022-07-27T08:09:52.400Z,21.20
2022-07-27T08:14:56.844Z,20.60
2022-07-27T08:20:00.362Z,21.20
2022-07-27T08:25:03.876Z,21.60
2022-07-27T08:30:10.449Z,20.70
2022-07-27T08:35:17.693Z,21.40
2022-07-27T08:40:39.469Z,21.50
2022-07-27T08:45:47.255Z,21.90
2022-07-27T08:50:50.510Z,21.30
2022-07-27T08:55:56.755Z,21.20
2022-07-27T09:01:01.303Z,20.50
2022-07-27T09:06:04.682Z,20.40
2022-07-27T09:11:15.142Z,20.20
2022-07-27T09:17:02.934Z,20.10
2022-07-27T09:21:53.858Z,20.20
2022-07-27T09:27:04.391Z,20.20
2022-07-27T09:32:16.729Z,20.20
2022-07-27T09:37:25.942Z,20.30
2022-07-27T09:43:05.563Z,20.60
2022-07-27T09:47:54.004Z,21.10
2022-07-27T09:53:41.254Z,20.70
2022-07-27T09:58:47.338Z,21.10
2022-07-27T10:03:54.665Z,21.10
2022-07-27T10:08:59.533Z,20.80
2022-07-27T10:14:02.577Z,20.70
2022-07-27T10:19:14.081Z,21.10
2022-07-27T10:24:28.852Z,21.70
2022-07-27T10:29:33.208Z,21.20
2022-07-27T10:34:40.098Z,20.80
2022-07-27T10:39:44.674Z,20.30
2022-07-27T10:45:12.400Z,20.30
2022-07-27T10:50:30.022Z,20.30
2022-07-27T10:55:49.936Z,20.10
2022-07-27T11:01:00.226Z,20.10
2022-07-27T11:06:31.160Z,19.90
2022-07-27T11:11:34.423Z,20.00
2022-07-27T11:16:54.056Z,20.40
2022-07-27T11:22:04.423Z,20.30
2022-07-27T11:27:17.173Z,20.20
2022-07-27T11:32:22.414Z,20.30
2022-07-27T11:37:27.287Z,20.30
2022-07-27T11:42:39.312Z,20.40
2022-07-27T11:47:42.616Z,20.50
2022-07-27T11:53:01.232Z,20.50
2022-07-27T11:58:05.504Z,20.90
2022-07-27T12:03:08.942Z,21.00
2022-07-27T12:08:14.803Z,21.00
2022-07-27T12:13:20.220Z,20.90
2022-07-27T12:18:23.595Z,20.80
2022-07-27T12:23:32.010Z,21.10
2022-07-27T12:28:35.397Z,20.90
2022-07-27T12:33:39.794Z,20.90
2022-07-27T12:38:48.791Z,20.90
2022-07-27T12:44:06.573Z,21.00
2022-07-27T12:49:17.570Z,21.20
2022-07-27T12:54:24.123Z,21.00
2022-07-27T12:59:27.461Z,21.00
2022-07-27T13:04:30.737Z,21.00
2022-07-27T13:10:02.757Z,21.20
2022-07-27T13:14:59.108Z,21.10
2022-07-27T13:20:02.531Z,21.00
2022-07-27T13:25:15.638Z,20.90
2022-07-27T13:30:21.306Z,20.80
2022-07-27T13:35:24.805Z,20.80
2022-07-27T13:40:29.431Z,20.80
2022-07-27T13:45:35.394Z,20.70
2022-07-27T13:50:46.461Z,20.60
2022-07-27T13:55:51.062Z,21.00
2022-07-27T14:00:54.498Z,20.80
2022-07-27T14:05:57.915Z,20.70
2022-07-27T14:11:03.456Z,20.70
2022-07-27T14:16:08.193Z,20.60
2022-07-27T14:21:11.694Z,20.70
2022-07-27T14:26:16.459Z,20.40
2022-07-27T14:31:20.862Z,20.70
2022-07-27T14:36:27.241Z,20.60
2022-07-27T14:41:32.411Z,20.40
2022-07-27T14:46:35.533Z,20.50
2022-07-27T14:51:39.549Z,20.60
2022-07-27T14:56:44.131Z,20.70
2022-07-27T15:01:47.495Z,20.80
2022-07-27T15:06:50.723Z,20.80
2022-07-27T15:11:55.375Z,20.60
2022-07-27T15:16:59.047Z,20.80
2022-07-27T15:22:02.306Z,21.00
2022-07-27T15:27:07.053Z,21.00
2022-07-27T15:32:10.638Z,21.00
2022-07-27T15:37:15.114Z,21.10
2022-07-27T15:42:22.474Z,20.90
2022-07-27T15:47:25.928Z,20.80
2022-07-27T15:52:29.352Z,20.70
2022-07-27T15:57:34.146Z,20.60
2022-07-27T16:02:38.388Z,20.40
2022-07-27T16:07:44.952Z,20.30
2022-07-27T16:12:49.815Z,20.50
2022-07-27T16:17:53.013Z,20.60
2022-07-27T16:22:56.239Z,20.40
2022-07-27T16:28:04.273Z,20.40
2022-07-27T16:33:07.685Z,20.40
2022-07-27T16:38:12.240Z,20.40
2022-07-27T16:43:23.911Z,20.40
2022-07-27T16:48:45.832Z,20.30
2022-07-27T16:53:50.724Z,20.40
2022-07-27T16:59:23.388Z,20.20
2022-07-27T17:04:28.770Z,20.10
2022-07-27T17:09:34.843Z,20.20
2022-07-27T17:14:39.981Z,20.00
2022-07-27T17:19:43.645Z,20.10
2022-07-27T17:24:50.110Z,20.00
2022-07-27T17:29:55.358Z,20.00
2022-07-27T17:34:58.680Z,20.00
2022-07-27T17:40:02.182Z,19.90
2022-07-27T17:45:08.470Z,19.90
2022-07-27T17:50:11.954Z,19.90
2022-07-27T17:55:15.174Z,19.90
2022-07-27T18:00:20.026Z,19.80
2022-07-27T18:05:32.095Z,19.80
2022-07-27T18:10:38.680Z,19.70
2022-07-27T18:15:52.195Z,19.70
2022-07-27T18:20:57.836Z,19.60
2022-07-27T18:26:01.092Z,19.60
2022-07-27T18:31:06.145Z,19.50
2022-07-27T18:36:11.032Z,19.60
2022-07-27T18:41:17.553Z,19.40
2022-07-27T18:46:24.678Z,19.40
2022-07-27T18:51:30.476Z,19.50
2022-07-27T18:56:33.610Z,19.30
2022-07-27T19:01:38.891Z,19.20
2022-07-27T19:06:42.046Z,19.10
2022-07-27T19:11:46.570Z,18.90
2022-07-27T19:16:51.306Z,18.90
2022-07-27T19:21:57.549Z,18.80
2022-07-27T19:27:00.729Z,18.80
2022-07-27T19:32:07.401Z,18.80
2022-07-27T19:37:10.611Z,18.70
2022-07-27T19:42:15.652Z,18.70
2022-07-27T19:47:20.488Z,18.60
2022-07-27T19:52:23.731Z,18.50
2022-07-27T19:57:26.969Z,18.20
2022-07-27T20:02:36.955Z,18.10
2022-07-27T20:07:40.280Z,18.00
2022-07-27T20:12:45.742Z,17.90
2022-07-27T20:17:55.876Z,17.90
2022-07-27T20:22:59.451Z,17.90
2022-07-27T20:28:05.086Z,17.80
2022-07-27T20:33:12.095Z,17.80
2022-07-27T20:38:15.331Z,17.70
2022-07-27T20:43:18.605Z,17.60
2022-07-27T20:48:23.285Z,17.50
2022-07-27T20:53:26.801Z,17.50
2022-07-27T20:58:33.064Z,17.40
2022-07-27T21:03:38.330Z,17.40
2022-07-27T21:08:46.231Z,17.40
2022-07-27T21:13:54.745Z,17.30
2022-07-27T21:18:59.816Z,17.30
2022-07-27T21:24:19.060Z,17.30
2022-07-27T21:29:24.294Z,17.30
2022-07-27T21:34:28.934Z,17.30
2022-07-27T21:39:32.110Z,17.30
2022-07-27T21:44:36.110Z,17.30
2022-07-27T21:49:40.747Z,17.30
2022-07-27T21:54:43.889Z,17.30
2022-07-27T21:59:47.022Z,17.30
2022-07-27T22:04:51.650Z,17.20
2022-07-27T22:09:54.784Z,17.10
2022-07-27T22:14:57.973Z,17.10
2022-07-27T22:20:02.489Z,17.10
2022-07-27T22:25:06.730Z,17.00
2022-07-27T22:30:10.621Z,17.10
2022-07-27T22:35:15.214Z,17.10
2022-07-27T22:40:18.914Z,17.00
2022-07-27T22:45:22.342Z,17.00
2022-07-27T22:50:27.212Z,17.00
2022-07-27T22:55:30.454Z,17.00
2022-07-27T23:00:33.926Z,17.00
2022-07-27T23:05:38.954Z,17.00
2022-07-27T23:10:48.157Z,16.90
2022-07-27T23:15:51.831Z,16.90
2022-07-27T23:20:57.812Z,16.80
2022-07-27T23:26:01.076Z,16.80
2022-07-27T23:31:04.365Z,16.70
2022-07-27T23:36:10.377Z,16.70
2022-07-27T23:41:13.702Z,16.60
2022-07-27T23:46:16.962Z,16.70
2022-07-27T23:51:21.870Z,16.60
2022-07-27T23:56:25.129Z,16.50
